sensor_id;sensor_type;location;lat;lon;timestamp;pressure;altitude;pressure_sealevel;temperature;humidity
82728;BME280;72459;50.110;8.750;2023-08-31T00:01:14;99903.59;;;13.80;75.00
82728;BME280;72459;50.110;8.750;2023-08-31T00:03:40;99910.78;;;13.89;75.20
82728;BME280;72459;50.110;8.750;2023-08-31T00:06:05;99909.88;;;13.88;76.25
82728;BME280;72459;50.110;8.750;2023-08-31T00:08:32;99906.38;;;13.89;76.58
82728;BME280;72459;50.110;8.750;2023-08-31T00:10:59;99908.97;;;13.86;76.43
82728;BME280;72459;50.110;8.750;2023-08-31T00:13:28;99912.53;;;13.88;76.84
82728;BME280;72459;50.110;8.750;2023-08-31T00:15:57;99913.38;;;13.86;78.12
82728;BME280;72459;50.110;8.750;2023-08-31T00:18:23;99904.53;;;13.84;75.22
82728;BME280;72459;50.110;8.750;2023-08-31T00:20:50;99915.16;;;13.88;77.68
82728;BME280;72459;50.110;8.750;2023-08-31T00:23:15;99921.41;;;13.93;75.22
82728;BME280;72459;50.110;8.750;2023-08-31T00:25:40;99907.28;;;13.91;78.51
82728;BME280;72459;50.110;8.750;2023-08-31T00:28:08;99921.47;;;13.96;75.15
82728;BME280;72459;50.110;8.750;2023-08-31T00:30:34;99910.78;;;13.90;78.73
82728;BME280;72459;50.110;8.750;2023-08-31T00:33:00;99910.66;;;13.81;78.17
82728;BME280;72459;50.110;8.750;2023-08-31T00:35:26;99908.84;;;13.79;76.57
82728;BME280;72459;50.110;8.750;2023-08-31T00:37:52;99918.66;;;13.86;76.57
82728;BME280;72459;50.110;8.750;2023-08-31T00:40:22;99920.31;;;13.79;78.85
82728;BME280;72459;50.110;8.750;2023-08-31T00:42:47;99921.16;;;13.77;79.94
82728;BME280;72459;50.110;8.750;2023-08-31T00:45:13;99922.09;;;13.82;76.66
82728;BME280;72459;50.110;8.750;2023-08-31T00:47:38;99925.63;;;13.82;75.25
82728;BME280;72459;50.110;8.750;2023-08-31T00:50:06;99928.31;;;13.85;76.32
82728;BME280;72459;50.110;8.750;2023-08-31T00:52:33;99929.06;;;13.77;79.91
82728;BME280;72459;50.110;8.750;2023-08-31T00:54:59;99930.91;;;13.81;77.84
82728;BME280;72459;50.110;8.750;2023-08-31T00:57:27;99927.50;;;13.88;76.44
82728;BME280;72459;50.110;8.750;2023-08-31T00:59:53;99929.16;;;13.83;79.36
82728;BME280;72459;50.110;8.750;2023-08-31T01:02:29;99937.00;;;13.77;76.12
82728;BME280;72459;50.110;8.750;2023-08-31T01:05:29;99939.53;;;13.71;77.13
82728;BME280;72459;50.110;8.750;2023-08-31T01:08:06;99939.59;;;13.74;75.87
82728;BME280;72459;50.110;8.750;2023-08-31T01:10:55;99944.78;;;13.69;74.65
82728;BME280;72459;50.110;8.750;2023-08-31T01:13:24;99934.88;;;13.57;76.49
82728;BME280;72459;50.110;8.750;2023-08-31T01:15:54;99934.00;;;13.58;75.26
82728;BME280;72459;50.110;8.750;2023-08-31T01:18:23;99939.22;;;13.55;74.75
82728;BME280;72459;50.110;8.750;2023-08-31T01:24:00;99940.03;;;13.50;76.84
82728;BME280;72459;50.110;8.750;2023-08-31T01:26:26;99938.16;;;13.44;75.91
82728;BME280;72459;50.110;8.750;2023-08-31T01:28:54;99943.38;;;13.41;75.76
82728;BME280;72459;50.110;8.750;2023-08-31T01:31:20;99945.09;;;13.39;75.06
82728;BME280;72459;50.110;8.750;2023-08-31T01:33:46;99952.03;;;13.32;76.12
82728;BME280;72459;50.110;8.750;2023-08-31T01:36:29;99945.78;;;13.27;77.16
82728;BME280;72459;50.110;8.750;2023-08-31T01:39:14;99951.94;;;13.28;75.69
82728;BME280;72459;50.110;8.750;2023-08-31T01:41:43;99954.38;;;13.17;78.53
82728;BME280;72459;50.110;8.750;2023-08-31T01:44:13;99957.81;;;13.15;77.83
82728;BME280;72459;50.110;8.750;2023-08-31T01:46:41;99959.56;;;13.14;75.87
82728;BME280;72459;50.110;8.750;2023-08-31T01:49:06;99960.53;;;13.18;76.38
82728;BME280;72459;50.110;8.750;2023-08-31T01:51:32;99963.19;;;13.18;78.46
82728;BME280;72459;50.110;8.750;2023-08-31T01:53:57;99967.75;;;13.26;78.23
82728;BME280;72459;50.110;8.750;2023-08-31T01:56:24;99955.56;;;13.33;75.43
82728;BME280;72459;50.110;8.750;2023-08-31T01:58:49;99963.53;;;13.36;78.00
82728;BME280;72459;50.110;8.750;2023-08-31T02:01:15;99960.09;;;13.40;79.68
82728;BME280;72459;50.110;8.750;2023-08-31T02:03:40;99973.19;;;13.36;75.71
82728;BME280;72459;50.110;8.750;2023-08-31T02:06:05;99974.25;;;13.45;76.04
82728;BME280;72459;50.110;8.750;2023-08-31T02:08:32;99962.88;;;13.48;75.19
82728;BME280;72459;50.110;8.750;2023-08-31T02:10:57;99958.56;;;13.54;75.72
82728;BME280;72459;50.110;8.750;2023-08-31T02:13:22;99958.47;;;13.48;75.09
82728;BME280;72459;50.110;8.750;2023-08-31T02:15:51;99952.09;;;13.36;78.04
82728;BME280;72459;50.110;8.750;2023-08-31T02:18:16;99957.53;;;13.45;77.50
82728;BME280;72459;50.110;8.750;2023-08-31T02:20:42;99964.50;;;13.41;75.50
82728;BME280;72459;50.110;8.750;2023-08-31T02:23:07;99964.47;;;13.40;77.61
82728;BME280;72459;50.110;8.750;2023-08-31T02:25:34;99961.63;;;13.29;78.79
82728;BME280;72459;50.110;8.750;2023-08-31T02:27:59;99971.38;;;13.33;75.16
82728;BME280;72459;50.110;8.750;2023-08-31T02:30:25;99969.75;;;13.40;75.85
82728;BME280;72459;50.110;8.750;2023-08-31T02:32:50;99970.63;;;13.40;76.79
82728;BME280;72459;50.110;8.750;2023-08-31T02:35:15;99970.38;;;13.26;76.46
82728;BME280;72459;50.110;8.750;2023-08-31T02:37:41;99973.97;;;13.30;76.85
82728;BME280;72459;50.110;8.750;2023-08-31T02:40:08;99970.53;;;13.34;76.75
82728;BME280;72459;50.110;8.750;2023-08-31T02:42:33;99972.38;;;13.40;75.20
82728;BME280;72459;50.110;8.750;2023-08-31T02:44:59;99971.56;;;13.42;78.60
82728;BME280;72459;50.110;8.750;2023-08-31T02:47:24;99974.31;;;13.48;75.46
82728;BME280;72459;50.110;8.750;2023-08-31T02:49:49;99977.75;;;13.44;76.94
82728;BME280;72459;50.110;8.750;2023-08-31T02:52:15;99973.50;;;13.52;74.79
82728;BME280;72459;50.110;8.750;2023-08-31T02:54:40;99977.06;;;13.54;75.63
82728;BME280;72459;50.110;8.750;2023-08-31T02:57:06;99981.44;;;13.54;75.00
82728;BME280;72459;50.110;8.750;2023-08-31T02:59:31;99977.78;;;13.46;77.30
82728;BME280;72459;50.110;8.750;2023-08-31T03:02:03;99984.81;;;13.45;75.45
82728;BME280;72459;50.110;8.750;2023-08-31T03:04:28;99981.22;;;13.42;75.30
82728;BME280;72459;50.110;8.750;2023-08-31T03:06:53;99981.91;;;13.31;77.22
82728;BME280;72459;50.110;8.750;2023-08-31T03:09:19;99994.22;;;13.31;77.63
82728;BME280;72459;50.110;8.750;2023-08-31T03:11:45;99990.81;;;13.37;76.14
82728;BME280;72459;50.110;8.750;2023-08-31T03:14:10;99981.88;;;13.30;76.07
82728;BME280;72459;50.110;8.750;2023-08-31T03:16:36;99985.50;;;13.35;75.35
82728;BME280;72459;50.110;8.750;2023-08-31T03:19:01;99982.91;;;13.37;76.74
82728;BME280;72459;50.110;8.750;2023-08-31T03:21:27;99980.28;;;13.38;75.74
82728;BME280;72459;50.110;8.750;2023-08-31T03:23:52;99979.25;;;13.30;76.67
82728;BME280;72459;50.110;8.750;2023-08-31T03:26:17;99977.47;;;13.29;75.29
82728;BME280;72459;50.110;8.750;2023-08-31T03:28:42;99982.06;;;13.39;75.56
82728;BME280;72459;50.110;8.750;2023-08-31T03:31:08;99977.41;;;13.26;76.32
82728;BME280;72459;50.110;8.750;2023-08-31T03:33:33;99983.53;;;13.23;78.27
82728;BME280;72459;50.110;8.750;2023-08-31T03:36:02;99978.38;;;13.31;76.08
82728;BME280;72459;50.110;8.750;2023-08-31T03:38:32;99974.75;;;13.24;76.00
82728;BME280;72459;50.110;8.750;2023-08-31T03:40:57;99978.03;;;13.14;77.84
82728;BME280;72459;50.110;8.750;2023-08-31T03:43:23;99983.53;;;13.23;77.87
82728;BME280;72459;50.110;8.750;2023-08-31T03:45:49;99991.47;;;13.25;76.15
82728;BME280;72459;50.110;8.750;2023-08-31T03:48:14;99988.84;;;13.26;76.88
82728;BME280;72459;50.110;8.750;2023-08-31T03:50:39;99991.41;;;13.22;76.79
82728;BME280;72459;50.110;8.750;2023-08-31T03:53:05;99997.75;;;13.31;77.67
82728;BME280;72459;50.110;8.750;2023-08-31T03:55:30;100002.09;;;13.28;75.25
82728;BME280;72459;50.110;8.750;2023-08-31T03:57:55;99993.38;;;13.32;75.92
82728;BME280;72459;50.110;8.750;2023-08-31T04:00:21;100002.91;;;13.25;77.54
82728;BME280;72459;50.110;8.750;2023-08-31T04:02:46;100003.88;;;13.29;75.94
82728;BME280;72459;50.110;8.750;2023-08-31T04:05:11;100011.66;;;13.23;77.15
82728;BME280;72459;50.110;8.750;2023-08-31T04:07:39;100015.81;;;13.12;77.83
82728;BME280;72459;50.110;8.750;2023-08-31T04:10:05;100024.66;;;13.15;78.01
82728;BME280;72459;50.110;8.750;2023-08-31T04:12:31;100027.06;;;13.03;75.71
82728;BME280;72459;50.110;8.750;2023-08-31T04:14:56;100022.81;;;13.11;75.23
82728;BME280;72459;50.110;8.750;2023-08-31T04:17:22;100031.56;;;13.09;76.55
82728;BME280;72459;50.110;8.750;2023-08-31T04:19:47;100033.06;;;12.97;77.48
82728;BME280;72459;50.110;8.750;2023-08-31T04:22:12;100027.78;;;12.97;75.01
82728;BME280;72459;50.110;8.750;2023-08-31T04:24:38;100031.06;;;12.87;78.60
82728;BME280;72459;50.110;8.750;2023-08-31T04:27:03;100029.16;;;12.80;76.50
82728;BME280;72459;50.110;8.750;2023-08-31T04:29:30;100031.00;;;12.84;77.03
82728;BME280;72459;50.110;8.750;2023-08-31T04:31:57;100045.03;;;12.82;78.89
82728;BME280;72459;50.110;8.750;2023-08-31T04:34:23;100045.78;;;12.76;76.99
82728;BME280;72459;50.110;8.750;2023-08-31T04:36:49;100037.19;;;12.85;75.60
82728;BME280;72459;50.110;8.750;2023-08-31T04:39:14;100045.19;;;12.89;76.63
82728;BME280;72459;50.110;8.750;2023-08-31T04:41:40;100047.88;;;12.91;77.35
82728;BME280;72459;50.110;8.750;2023-08-31T04:44:05;100047.81;;;12.89;78.67
82728;BME280;72459;50.110;8.750;2023-08-31T04:46:31;100060.16;;;12.90;78.32
82728;BME280;72459;50.110;8.750;2023-08-31T04:48:56;100054.91;;;12.92;76.91
82728;BME280;72459;50.110;8.750;2023-08-31T04:51:32;100049.81;;;12.99;76.60
82728;BME280;72459;50.110;8.750;2023-08-31T04:54:00;100052.25;;;12.90;78.40
82728;BME280;72459;50.110;8.750;2023-08-31T04:56:30;100055.53;;;12.80;78.98
82728;BME280;72459;50.110;8.750;2023-08-31T04:58:57;100056.25;;;12.73;77.78
82728;BME280;72459;50.110;8.750;2023-08-31T05:01:22;100066.88;;;12.76;77.97
82728;BME280;72459;50.110;8.750;2023-08-31T05:03:47;100069.25;;;12.65;79.12
82728;BME280;72459;50.110;8.750;2023-08-31T05:06:13;100071.03;;;12.66;78.18
82728;BME280;72459;50.110;8.750;2023-08-31T05:08:38;100072.72;;;12.63;77.09
82728;BME280;72459;50.110;8.750;2023-08-31T05:11:04;100075.44;;;12.66;78.68
82728;BME280;72459;50.110;8.750;2023-08-31T05:13:29;100076.28;;;12.65;76.48
82728;BME280;72459;50.110;8.750;2023-08-31T05:15:54;100071.94;;;12.67;75.76
82728;BME280;72459;50.110;8.750;2023-08-31T05:18:20;100071.91;;;12.65;78.57
82728;BME280;72459;50.110;8.750;2023-08-31T05:20:45;100080.50;;;12.57;79.65
82728;BME280;72459;50.110;8.750;2023-08-31T05:23:11;100088.41;;;12.57;79.04
82728;BME280;72459;50.110;8.750;2023-08-31T05:25:42;100096.50;;;12.64;77.05
82728;BME280;72459;50.110;8.750;2023-08-31T05:28:07;100097.38;;;12.65;77.72
82728;BME280;72459;50.110;8.750;2023-08-31T05:30:32;100100.97;;;12.68;76.29
82728;BME280;72459;50.110;8.750;2023-08-31T05:33:01;100110.59;;;12.66;77.72
82728;BME280;72459;50.110;8.750;2023-08-31T05:35:26;100118.63;;;12.71;76.06
82728;BME280;72459;50.110;8.750;2023-08-31T05:37:52;100116.97;;;12.76;77.33
82728;BME280;72459;50.110;8.750;2023-08-31T05:40:17;100117.75;;;12.72;78.59
82728;BME280;72459;50.110;8.750;2023-08-31T05:42:43;100121.31;;;12.74;78.43
82728;BME280;72459;50.110;8.750;2023-08-31T05:45:09;100127.53;;;12.76;78.15
82728;BME280;72459;50.110;8.750;2023-08-31T05:47:35;100119.69;;;12.79;77.33
82728;BME280;72459;50.110;8.750;2023-08-31T05:50:01;100121.50;;;12.82;78.75
82728;BME280;72459;50.110;8.750;2023-08-31T05:52:27;100123.22;;;12.80;77.53
82728;BME280;72459;50.110;8.750;2023-08-31T05:54:52;100122.34;;;12.81;78.39
82728;BME280;72459;50.110;8.750;2023-08-31T05:57:19;100124.22;;;12.85;77.66
82728;BME280;72459;50.110;8.750;2023-08-31T05:59:44;100120.75;;;12.87;77.78
82728;BME280;72459;50.110;8.750;2023-08-31T06:02:10;100124.50;;;12.97;76.17
82728;BME280;72459;50.110;8.750;2023-08-31T06:04:36;100126.38;;;13.01;76.56
82728;BME280;72459;50.110;8.750;2023-08-31T06:07:02;100127.38;;;13.06;76.50
82728;BME280;72459;50.110;8.750;2023-08-31T06:09:27;100132.81;;;13.14;76.88
82728;BME280;72459;50.110;8.750;2023-08-31T06:11:52;100137.34;;;13.18;76.75
82728;BME280;72459;50.110;8.750;2023-08-31T06:14:17;100138.41;;;13.26;76.95
82728;BME280;72459;50.110;8.750;2023-08-31T06:16:44;100139.28;;;13.26;76.28
82728;BME280;72459;50.110;8.750;2023-08-31T06:19:10;100146.44;;;13.32;75.28
82728;BME280;72459;50.110;8.750;2023-08-31T06:21:35;100145.56;;;13.31;75.27
82728;BME280;72459;50.110;8.750;2023-08-31T06:24:00;100148.97;;;13.26;74.94
82728;BME280;72459;50.110;8.750;2023-08-31T06:26:26;100152.28;;;13.17;75.83
82728;BME280;72459;50.110;8.750;2023-08-31T06:28:51;100155.56;;;13.09;76.47
82728;BME280;72459;50.110;8.750;2023-08-31T06:31:16;100161.09;;;13.18;75.66
82728;BME280;72459;50.110;8.750;2023-08-31T06:33:42;100160.56;;;13.34;75.64
82728;BME280;72459;50.110;8.750;2023-08-31T06:36:07;100158.22;;;13.48;75.02
82728;BME280;72459;50.110;8.750;2023-08-31T06:38:32;100156.63;;;13.56;75.07
82728;BME280;72459;50.110;8.750;2023-08-31T06:40:58;100155.19;;;13.69;74.97
82728;BME280;72459;50.110;8.750;2023-08-31T06:43:25;100144.84;;;13.81;74.07
82728;BME280;72459;50.110;8.750;2023-08-31T06:45:53;100152.41;;;14.08;73.87
82728;BME280;72459;50.110;8.750;2023-08-31T06:48:18;100149.09;;;14.18;74.04
82728;BME280;72459;50.110;8.750;2023-08-31T06:50:43;100146.81;;;14.38;72.54
82728;BME280;72459;50.110;8.750;2023-08-31T06:53:09;100147.38;;;14.68;73.17
82728;BME280;72459;50.110;8.750;2023-08-31T06:55:34;100150.97;;;14.73;72.80
82728;BME280;72459;50.110;8.750;2023-08-31T06:58:01;100162.56;;;14.80;70.18
82728;BME280;72459;50.110;8.750;2023-08-31T07:00:27;100164.75;;;15.07;71.33
82728;BME280;72459;50.110;8.750;2023-08-31T07:02:53;100157.31;;;16.10;68.29
82728;BME280;72459;50.110;8.750;2023-08-31T07:05:19;100156.34;;;16.90;69.45
82728;BME280;72459;50.110;8.750;2023-08-31T07:07:52;100161.31;;;17.67;64.74
82728;BME280;72459;50.110;8.750;2023-08-31T07:10:17;100168.13;;;17.28;65.56
82728;BME280;72459;50.110;8.750;2023-08-31T07:12:42;100176.19;;;17.43;65.03
82728;BME280;72459;50.110;8.750;2023-08-31T07:15:08;100178.53;;;16.95;66.81
82728;BME280;72459;50.110;8.750;2023-08-31T07:17:33;100171.28;;;18.29;61.78
82728;BME280;72459;50.110;8.750;2023-08-31T07:19:59;100170.50;;;19.08;62.64
82728;BME280;72459;50.110;8.750;2023-08-31T07:22:24;100185.19;;;20.46;60.98
82728;BME280;72459;50.110;8.750;2023-08-31T07:24:49;100176.59;;;19.75;62.37
82728;BME280;72459;50.110;8.750;2023-08-31T07:27:16;100183.53;;;20.19;62.69
82728;BME280;72459;50.110;8.750;2023-08-31T07:29:41;100195.13;;;20.06;63.21
82728;BME280;72459;50.110;8.750;2023-08-31T07:32:07;100186.41;;;19.47;62.87
82728;BME280;72459;50.110;8.750;2023-08-31T07:34:33;100197.88;;;18.26;61.20
82728;BME280;72459;50.110;8.750;2023-08-31T07:36:59;100199.66;;;18.24;64.14
82728;BME280;72459;50.110;8.750;2023-08-31T07:39:25;100193.47;;;18.34;63.44
82728;BME280;72459;50.110;8.750;2023-08-31T07:41:53;100196.13;;;18.26;61.94
82728;BME280;72459;50.110;8.750;2023-08-31T07:44:20;100194.44;;;18.80;61.16
82728;BME280;72459;50.110;8.750;2023-08-31T07:46:46;100192.03;;;20.85;59.21
82728;BME280;72459;50.110;8.750;2023-08-31T07:49:12;100187.28;;;22.03;55.15
82728;BME280;72459;50.110;8.750;2023-08-31T07:51:37;100192.00;;;24.06;56.05
82728;BME280;72459;50.110;8.750;2023-08-31T07:54:03;100186.22;;;25.03;53.19
82728;BME280;72459;50.110;8.750;2023-08-31T07:56:29;100192.00;;;26.19;54.35
82728;BME280;72459;50.110;8.750;2023-08-31T07:58:57;100190.38;;;26.14;49.39
82728;BME280;72459;50.110;8.750;2023-08-31T08:01:22;100202.44;;;24.60;48.35
82728;BME280;72459;50.110;8.750;2023-08-31T08:03:48;100207.63;;;25.08;47.07
82728;BME280;72459;50.110;8.750;2023-08-31T08:06:13;100200.69;;;24.98;45.92
82728;BME280;72459;50.110;8.750;2023-08-31T08:08:39;100204.84;;;25.46;45.69
82728;BME280;72459;50.110;8.750;2023-08-31T08:11:04;100202.72;;;25.23;47.92
82728;BME280;72459;50.110;8.750;2023-08-31T08:13:30;100198.13;;;26.83;45.77
82728;BME280;72459;50.110;8.750;2023-08-31T08:15:55;100217.16;;;28.09;43.10
82728;BME280;72459;50.110;8.750;2023-08-31T08:18:22;100207.09;;;27.38;40.25
82728;BME280;72459;50.110;8.750;2023-08-31T08:20:49;100206.25;;;30.08;44.73
82728;BME280;72459;50.110;8.750;2023-08-31T08:23:15;100214.03;;;27.45;42.51
82728;BME280;72459;50.110;8.750;2023-08-31T08:25:40;100217.06;;;27.36;48.80
82728;BME280;72459;50.110;8.750;2023-08-31T08:28:06;100215.44;;;28.32;44.69
82728;BME280;72459;50.110;8.750;2023-08-31T08:30:31;100220.81;;;27.32;41.87
82728;BME280;72459;50.110;8.750;2023-08-31T08:32:57;100209.69;;;29.91;43.78
82728;BME280;72459;50.110;8.750;2023-08-31T08:35:24;100207.19;;;30.83;35.24
82728;BME280;72459;50.110;8.750;2023-08-31T08:37:49;100205.22;;;29.07;41.31
82728;BME280;72459;50.110;8.750;2023-08-31T08:40:14;100220.81;;;29.44;42.16
82728;BME280;72459;50.110;8.750;2023-08-31T08:42:41;100222.88;;;30.58;37.54
82728;BME280;72459;50.110;8.750;2023-08-31T08:45:13;100219.63;;;32.76;37.98
82728;BME280;72459;50.110;8.750;2023-08-31T08:47:43;100219.59;;;32.29;34.20
82728;BME280;72459;50.110;8.750;2023-08-31T08:50:11;100231.47;;;30.10;41.40
82728;BME280;72459;50.110;8.750;2023-08-31T08:52:37;100239.63;;;30.68;36.13
82728;BME280;72459;50.110;8.750;2023-08-31T08:55:04;100235.28;;;32.57;37.00
82728;BME280;72459;50.110;8.750;2023-08-31T08:57:31;100237.47;;;34.61;37.52
82728;BME280;72459;50.110;8.750;2023-08-31T08:59:57;100225.72;;;33.58;34.34
82728;BME280;72459;50.110;8.750;2023-08-31T09:02:23;100232.38;;;33.68;36.77
82728;BME280;72459;50.110;8.750;2023-08-31T09:04:50;100230.25;;;34.18;33.47
82728;BME280;72459;50.110;8.750;2023-08-31T09:07:23;100240.78;;;33.50;38.71
82728;BME280;72459;50.110;8.750;2023-08-31T09:09:52;100251.50;;;31.21;31.72
82728;BME280;72459;50.110;8.750;2023-08-31T09:12:23;100249.53;;;30.69;39.17
82728;BME280;72459;50.110;8.750;2023-08-31T09:15:03;100244.13;;;27.07;37.41
82728;BME280;72459;50.110;8.750;2023-08-31T09:17:42;100248.03;;;25.05;43.27
82728;BME280;72459;50.110;8.750;2023-08-31T09:20:12;100251.69;;;25.02;43.83
82728;BME280;72459;50.110;8.750;2023-08-31T09:22:42;100248.72;;;26.15;45.97
82728;BME280;72459;50.110;8.750;2023-08-31T09:25:10;100253.13;;;26.48;41.74
82728;BME280;72459;50.110;8.750;2023-08-31T09:27:38;100248.47;;;25.23;41.13
82728;BME280;72459;50.110;8.750;2023-08-31T09:30:06;100247.56;;;23.01;47.92
82728;BME280;72459;50.110;8.750;2023-08-31T09:32:32;100248.16;;;22.57;48.45
82728;BME280;72459;50.110;8.750;2023-08-31T09:34:57;100251.47;;;22.75;49.52
82728;BME280;72459;50.110;8.750;2023-08-31T09:37:27;100249.25;;;23.06;48.93
82728;BME280;72459;50.110;8.750;2023-08-31T09:39:53;100245.81;;;22.98;48.48
82728;BME280;72459;50.110;8.750;2023-08-31T09:42:18;100243.78;;;23.13;48.33
82728;BME280;72459;50.110;8.750;2023-08-31T09:44:44;100246.72;;;24.84;45.48
82728;BME280;72459;50.110;8.750;2023-08-31T09:47:10;100249.16;;;26.90;44.86
82728;BME280;72459;50.110;8.750;2023-08-31T09:49:49;100240.03;;;24.61;42.15
82728;BME280;72459;50.110;8.750;2023-08-31T09:52:16;100239.47;;;24.87;46.33
82728;BME280;72459;50.110;8.750;2023-08-31T09:54:43;100235.28;;;25.48;45.68
82728;BME280;72459;50.110;8.750;2023-08-31T09:57:10;100250.91;;;24.95;44.71
82728;BME280;72459;50.110;8.750;2023-08-31T09:59:38;100238.66;;;23.99;44.59
82728;BME280;72459;50.110;8.750;2023-08-31T10:02:05;100240.63;;;23.42;47.30
82728;BME280;72459;50.110;8.750;2023-08-31T10:04:32;100242.81;;;21.83;46.08
82728;BME280;72459;50.110;8.750;2023-08-31T10:07:03;100254.16;;;21.11;48.73
82728;BME280;72459;50.110;8.750;2023-08-31T10:09:29;100243.66;;;21.87;49.09
82728;BME280;72459;50.110;8.750;2023-08-31T10:11:55;100243.19;;;21.45;48.94
82728;BME280;72459;50.110;8.750;2023-08-31T10:14:21;100236.94;;;22.30;48.70
82728;BME280;72459;50.110;8.750;2023-08-31T10:16:48;100239.16;;;21.92;48.40
82728;BME280;72459;50.110;8.750;2023-08-31T10:19:14;100248.50;;;21.52;48.99
82728;BME280;72459;50.110;8.750;2023-08-31T10:21:40;100236.56;;;21.84;46.75
82728;BME280;72459;50.110;8.750;2023-08-31T10:24:06;100244.16;;;22.90;45.50
82728;BME280;72459;50.110;8.750;2023-08-31T10:26:32;100242.88;;;24.94;47.24
82728;BME280;72459;50.110;8.750;2023-08-31T10:28:59;100241.84;;;24.61;45.13
82728;BME280;72459;50.110;8.750;2023-08-31T10:31:29;100244.22;;;24.76;43.99
82728;BME280;72459;50.110;8.750;2023-08-31T10:34:05;100254.88;;;24.79;46.44
82728;BME280;72459;50.110;8.750;2023-08-31T10:36:44;100245.63;;;24.09;43.41
82728;BME280;72459;50.110;8.750;2023-08-31T10:39:15;100249.81;;;22.67;46.94
82728;BME280;72459;50.110;8.750;2023-08-31T10:41:41;100244.38;;;22.04;48.71
82728;BME280;72459;50.110;8.750;2023-08-31T10:44:23;100246.53;;;21.70;46.38
82728;BME280;72459;50.110;8.750;2023-08-31T10:46:50;100247.09;;;21.98;48.75
82728;BME280;72459;50.110;8.750;2023-08-31T10:49:17;100245.75;;;22.38;47.65
82728;BME280;72459;50.110;8.750;2023-08-31T10:51:46;100241.03;;;24.16;45.77
82728;BME280;72459;50.110;8.750;2023-08-31T10:54:19;100240.47;;;25.20;43.94
82728;BME280;72459;50.110;8.750;2023-08-31T10:59:24;100237.44;;;27.19;43.59
82728;BME280;72459;50.110;8.750;2023-08-31T11:01:57;100242.94;;;27.15;43.22
82728;BME280;72459;50.110;8.750;2023-08-31T11:04:27;100231.19;;;25.68;39.69
82728;BME280;72459;50.110;8.750;2023-08-31T11:07:26;100240.13;;;23.70;42.63
82728;BME280;72459;50.110;8.750;2023-08-31T11:09:51;100222.91;;;22.76;44.18
82728;BME280;72459;50.110;8.750;2023-08-31T11:12:21;100227.06;;;24.42;46.64
82728;BME280;72459;50.110;8.750;2023-08-31T11:14:48;100227.94;;;25.19;42.23
82728;BME280;72459;50.110;8.750;2023-08-31T11:17:13;100227.06;;;25.87;43.44
82728;BME280;72459;50.110;8.750;2023-08-31T11:19:39;100223.91;;;27.46;41.80
82728;BME280;72459;50.110;8.750;2023-08-31T11:22:06;100220.50;;;27.41;36.97
82728;BME280;72459;50.110;8.750;2023-08-31T11:24:34;100213.66;;;28.31;40.88
82728;BME280;72459;50.110;8.750;2023-08-31T11:27:00;100213.88;;;26.40;38.42
82728;BME280;72459;50.110;8.750;2023-08-31T11:29:29;100214.31;;;26.25;41.92
82728;BME280;72459;50.110;8.750;2023-08-31T11:31:56;100220.56;;;25.62;39.87
82728;BME280;72459;50.110;8.750;2023-08-31T11:34:22;100216.53;;;25.10;42.54
82728;BME280;72459;50.110;8.750;2023-08-31T11:36:48;100225.75;;;25.00;43.00
82728;BME280;72459;50.110;8.750;2023-08-31T11:39:13;100222.28;;;24.54;44.75
82728;BME280;72459;50.110;8.750;2023-08-31T11:41:39;100224.63;;;24.31;43.73
82728;BME280;72459;50.110;8.750;2023-08-31T11:44:13;100220.31;;;23.78;44.22
82728;BME280;72459;50.110;8.750;2023-08-31T11:46:39;100231.09;;;22.64;44.71
82728;BME280;72459;50.110;8.750;2023-08-31T11:49:06;100220.38;;;21.95;44.90
82728;BME280;72459;50.110;8.750;2023-08-31T11:51:33;100220.63;;;21.73;46.77
82728;BME280;72459;50.110;8.750;2023-08-31T11:54:01;100216.81;;;21.96;45.18
82728;BME280;72459;50.110;8.750;2023-08-31T11:56:38;100225.13;;;21.70;45.59
82728;BME280;72459;50.110;8.750;2023-08-31T11:59:07;100225.09;;;21.74;46.79
82728;BME280;72459;50.110;8.750;2023-08-31T12:01:33;100221.16;;;22.07;46.00
82728;BME280;72459;50.110;8.750;2023-08-31T12:04:21;100225.38;;;22.28;47.04
82728;BME280;72459;50.110;8.750;2023-08-31T12:06:52;100222.44;;;22.46;46.05
82728;BME280;72459;50.110;8.750;2023-08-31T12:09:20;100222.13;;;22.66;43.82
82728;BME280;72459;50.110;8.750;2023-08-31T12:11:52;100224.78;;;22.00;45.75
82728;BME280;72459;50.110;8.750;2023-08-31T12:16:45;100212.59;;;21.73;46.18
82728;BME280;72459;50.110;8.750;2023-08-31T12:19:10;100209.75;;;21.89;46.95
82728;BME280;72459;50.110;8.750;2023-08-31T12:21:36;100222.91;;;21.24;47.57
82728;BME280;72459;50.110;8.750;2023-08-31T12:24:01;100221.31;;;20.97;47.08
82728;BME280;72459;50.110;8.750;2023-08-31T12:26:28;100222.53;;;20.50;48.71
82728;BME280;72459;50.110;8.750;2023-08-31T12:28:54;100224.25;;;20.61;47.60
82728;BME280;72459;50.110;8.750;2023-08-31T12:31:21;100214.72;;;21.41;48.67
82728;BME280;72459;50.110;8.750;2023-08-31T12:33:46;100212.06;;;23.87;46.45
82728;BME280;72459;50.110;8.750;2023-08-31T12:36:12;100209.38;;;24.70;41.46
82728;BME280;72459;50.110;8.750;2023-08-31T12:38:38;100207.88;;;24.95;45.23
82728;BME280;72459;50.110;8.750;2023-08-31T12:41:03;100202.53;;;24.94;43.21
82728;BME280;72459;50.110;8.750;2023-08-31T12:43:29;100206.91;;;25.35;45.59
82728;BME280;72459;50.110;8.750;2023-08-31T12:45:55;100206.63;;;25.46;45.40
82728;BME280;72459;50.110;8.750;2023-08-31T12:48:20;100200.78;;;26.56;44.32
82728;BME280;72459;50.110;8.750;2023-08-31T12:50:46;100193.56;;;27.40;43.38
82728;BME280;72459;50.110;8.750;2023-08-31T12:53:13;100196.09;;;27.94;42.37
82728;BME280;72459;50.110;8.750;2023-08-31T12:55:39;100197.25;;;27.87;39.83
82728;BME280;72459;50.110;8.750;2023-08-31T12:58:04;100183.19;;;27.53;43.02
82728;BME280;72459;50.110;8.750;2023-08-31T13:00:29;100181.53;;;27.22;41.00